Time;durP1;ratioP1;P1;durP2;ratioP2;P2;SDS_P1;SDS_P2;PMS_P1;PMS_P2;Temp;Humidity;BMP_temperature;BMP_pressure;BME280_temperature;BME280_humidity;BME280_pressure;Samples;Min_cycle;Max_cycle;Signal;HPM_P1;HPM_P2
2023/06/22 00:00:36;;;;;;;2.92;2.72;;;;;;;;;;5058404;28;20286;-63
2023/06/22 00:03:03;;;;;;;2.85;2.75;;;;;;;;;;5058291;28;20227;-63
2023/06/22 00:05:30;;;;;;;4.57;2.88;;;;;;;;;;5058706;28;20202;-64
2023/06/22 00:07:58;;;;;;;3.40;3.10;;;;;;;;;;5057890;28;20340;-64
2023/06/22 00:10:25;;;;;;;3.28;3.08;;;;;;;;;;5059124;28;20584;-64
2023/06/22 00:12:52;;;;;;;3.03;2.83;;;;;;;;;;5056220;28;20230;-64
2023/06/22 00:15:19;;;;;;;3.17;2.97;;;;;;;;;;5058963;28;20215;-64
2023/06/22 00:17:47;;;;;;;2.80;2.70;;;;;;;;;;5057738;28;20199;-64
2023/06/22 00:20:14;;;;;;;3.55;3.35;;;;;;;;;;5057557;28;20237;-64
2023/06/22 00:22:42;;;;;;;3.15;2.95;;;;;;;;;;5059114;28;20227;-64
2023/06/22 00:25:11;;;;;;;3.30;3.10;;;;;;;;;;5059124;28;20218;-64
2023/06/22 00:27:38;;;;;;;3.05;2.95;;;;;;;;;;5049415;28;20203;-64
2023/06/22 00:30:06;;;;;;;3.08;2.90;;;;;;;;;;5049142;28;20730;-64
2023/06/22 00:32:33;;;;;;;3.63;3.00;;;;;;;;;;5050389;28;20212;-65
2023/06/22 00:35:00;;;;;;;3.55;3.05;;;;;;;;;;5054101;28;20631;-63
2023/06/22 00:37:29;;;;;;;2.95;2.85;;;;;;;;;;5058267;28;20292;-64
2023/06/22 00:39:56;;;;;;;3.28;3.08;;;;;;;;;;5060696;28;20207;-63
2023/06/22 00:42:25;;;;;;;3.15;2.95;;;;;;;;;;5057915;28;20318;-64
2023/06/22 00:44:52;;;;;;;3.58;3.35;;;;;;;;;;5058127;28;20267;-63
2023/06/22 00:47:19;;;;;;;3.03;2.83;;;;;;;;;;5057413;28;20213;-64
2023/06/22 00:49:46;;;;;;;3.38;3.10;;;;;;;;;;5057466;28;20721;-63
2023/06/22 00:52:20;;;;;;;3.03;2.88;;;;;;;;;;5057355;28;20303;-64
2023/06/22 00:54:48;;;;;;;3.17;2.90;;;;;;;;;;5059341;28;20211;-64
2023/06/22 00:57:16;;;;;;;3.22;2.95;;;;;;;;;;5056514;28;20853;-64
2023/06/22 00:59:45;;;;;;;3.47;3.28;;;;;;;;;;5052156;28;20254;-64
2023/06/22 01:02:12;;;;;;;3.00;2.90;;;;;;;;;;5056367;28;20723;-63
2023/06/22 01:04:40;;;;;;;3.55;3.30;;;;;;;;;;5055588;28;20203;-63
2023/06/22 01:07:12;;;;;;;3.70;3.40;;;;;;;;;;5062405;28;20614;-63
2023/06/22 01:09:46;;;;;;;3.55;3.28;;;;;;;;;;5049335;28;20361;-63
2023/06/22 01:12:14;;;;;;;3.35;3.15;;;;;;;;;;5068163;28;20423;-64
2023/06/22 01:14:43;;;;;;;3.40;3.17;;;;;;;;;;5066116;28;20245;-63
2023/06/22 01:17:16;;;;;;;3.30;3.13;;;;;;;;;;5069123;28;20665;-63
2023/06/22 01:19:46;;;;;;;3.78;3.50;;;;;;;;;;5058501;28;20208;-64
2023/06/22 01:22:15;;;;;;;3.47;3.28;;;;;;;;;;5062584;28;20314;-63
2023/06/22 01:24:46;;;;;;;3.42;3.13;;;;;;;;;;5061799;28;20290;-63
2023/06/22 01:27:21;;;;;;;3.63;3.35;;;;;;;;;;5066617;28;20717;-63
2023/06/22 01:29:50;;;;;;;3.33;3.13;;;;;;;;;;5059018;28;20202;-63
2023/06/22 01:32:17;;;;;;;6.07;3.42;;;;;;;;;;5061810;28;20699;-63
2023/06/22 01:34:44;;;;;;;3.42;3.22;;;;;;;;;;5056602;28;20238;-63
2023/06/22 01:37:12;;;;;;;4.28;3.90;;;;;;;;;;5054556;28;20204;-64
2023/06/22 01:39:39;;;;;;;4.40;3.75;;;;;;;;;;5059560;28;20265;-64
2023/06/22 01:42:06;;;;;;;5.50;4.32;;;;;;;;;;5066243;28;20207;-64
2023/06/22 01:44:33;;;;;;;4.60;3.55;;;;;;;;;;5066964;28;20260;-63
2023/06/22 01:47:02;;;;;;;4.20;3.90;;;;;;;;;;5068499;28;20207;-63
2023/06/22 01:49:29;;;;;;;5.93;3.88;;;;;;;;;;5063991;28;20666;-63
2023/06/22 01:51:56;;;;;;;4.40;4.00;;;;;;;;;;5051449;28;20888;-63
2023/06/22 01:54:23;;;;;;;4.03;3.83;;;;;;;;;;5062828;28;20223;-64
2023/06/22 01:56:50;;;;;;;4.00;3.70;;;;;;;;;;5060103;28;20207;-63
2023/06/22 01:59:21;;;;;;;5.78;4.07;;;;;;;;;;5055416;28;20234;-63
2023/06/22 02:01:52;;;;;;;4.30;4.00;;;;;;;;;;5052832;28;20207;-64
2023/06/22 02:04:21;;;;;;;4.40;4.00;;;;;;;;;;5052007;28;20300;-64
2023/06/22 02:06:49;;;;;;;4.15;3.85;;;;;;;;;;5052509;28;20772;-64
2023/06/22 02:09:18;;;;;;;5.03;4.57;;;;;;;;;;5056898;28;20211;-64
2023/06/22 02:11:46;;;;;;;4.22;4.00;;;;;;;;;;5060029;28;20261;-64
2023/06/22 02:14:13;;;;;;;5.15;4.75;;;;;;;;;;5057705;28;20692;-64
2023/06/22 02:16:41;;;;;;;4.88;4.43;;;;;;;;;;5066662;28;20265;-64
2023/06/22 02:19:08;;;;;;;4.22;3.92;;;;;;;;;;5057452;28;20214;-64
2023/06/22 02:21:36;;;;;;;4.38;3.88;;;;;;;;;;5055142;28;20285;-64
2023/06/22 02:24:03;;;;;;;4.97;4.57;;;;;;;;;;5049852;28;20208;-63
2023/06/22 02:26:31;;;;;;;5.22;4.40;;;;;;;;;;5054842;28;20211;-63
2023/06/22 02:28:58;;;;;;;4.38;4.07;;;;;;;;;;5062829;28;20226;-63
2023/06/22 02:31:30;;;;;;;4.55;4.13;;;;;;;;;;5056580;28;20227;-64
2023/06/22 02:33:57;;;;;;;4.65;4.20;;;;;;;;;;5068174;28;20230;-63
2023/06/22 02:36:26;;;;;;;4.63;4.28;;;;;;;;;;5059883;28;20211;-63
2023/06/22 02:38:57;;;;;;;4.72;4.07;;;;;;;;;;5051333;28;20689;-64
2023/06/22 02:41:24;;;;;;;4.47;4.15;;;;;;;;;;5052511;28;20647;-64
2023/06/22 02:43:51;;;;;;;4.40;4.10;;;;;;;;;;5047648;28;20212;-64
2023/06/22 02:46:18;;;;;;;5.10;4.70;;;;;;;;;;5054195;28;20225;-64
2023/06/22 02:48:45;;;;;;;5.03;4.63;;;;;;;;;;5064048;28;20713;-64
2023/06/22 02:51:12;;;;;;;4.50;4.13;;;;;;;;;;5057577;28;20670;-63
2023/06/22 02:53:39;;;;;;;5.28;4.80;;;;;;;;;;5052147;28;20227;-63
2023/06/22 02:56:07;;;;;;;5.47;4.88;;;;;;;;;;5054308;28;20200;-63
2023/06/22 02:58:38;;;;;;;4.85;4.47;;;;;;;;;;5057194;28;20199;-63
2023/06/22 03:01:05;;;;;;;4.68;4.25;;;;;;;;;;5057796;28;20203;-63
2023/06/22 03:03:32;;;;;;;5.38;4.88;;;;;;;;;;5049850;28;20231;-62
2023/06/22 03:06:00;;;;;;;4.90;4.50;;;;;;;;;;5062751;28;20215;-63
2023/06/22 03:08:27;;;;;;;5.82;4.93;;;;;;;;;;5067546;28;20230;-63
2023/06/22 03:10:54;;;;;;;6.55;4.30;;;;;;;;;;5054712;28;20316;-63
2023/06/22 03:13:23;;;;;;;5.22;4.55;;;;;;;;;;5054971;28;20207;-63
2023/06/22 03:15:50;;;;;;;4.90;4.47;;;;;;;;;;5054501;28;20207;-62
2023/06/22 03:18:17;;;;;;;4.93;4.53;;;;;;;;;;5066162;28;20203;-62
2023/06/22 03:20:44;;;;;;;5.47;4.97;;;;;;;;;;5053881;28;20242;-63
2023/06/22 03:23:11;;;;;;;4.57;4.28;;;;;;;;;;5054356;28;20207;-62
2023/06/22 03:25:38;;;;;;;4.70;4.30;;;;;;;;;;5065467;28;20589;-63
2023/06/22 03:28:05;;;;;;;5.10;4.60;;;;;;;;;;5068908;28;20252;-63
2023/06/22 03:30:33;;;;;;;4.88;4.38;;;;;;;;;;5063855;28;20221;-63
2023/06/22 03:33:00;;;;;;;4.28;3.97;;;;;;;;;;5069489;28;20214;-62
2023/06/22 03:35:27;;;;;;;6.30;4.78;;;;;;;;;;5064017;28;20745;-62
2023/06/22 03:37:55;;;;;;;4.78;4.38;;;;;;;;;;5061428;28;20219;-62
2023/06/22 03:40:25;;;;;;;5.82;5.18;;;;;;;;;;5053239;28;20211;-62
2023/06/22 03:42:52;;;;;;;5.40;4.90;;;;;;;;;;5061230;28;20700;-62
2023/06/22 03:45:19;;;;;;;5.18;4.75;;;;;;;;;;5057399;28;20260;-62
2023/06/22 03:47:47;;;;;;;6.97;4.70;;;;;;;;;;5056251;28;20215;-62
2023/06/22 03:50:14;;;;;;;5.15;4.75;;;;;;;;;;5055913;28;20211;-62
2023/06/22 03:52:41;;;;;;;5.22;4.72;;;;;;;;;;5057260;28;20290;-62
2023/06/22 03:55:08;;;;;;;5.45;4.95;;;;;;;;;;5057578;28;20701;-63
2023/06/22 03:57:35;;;;;;;7.40;5.43;;;;;;;;;;5060919;28;20277;-62
2023/06/22 04:00:05;;;;;;;4.97;4.65;;;;;;;;;;5067334;28;20210;-63
2023/06/22 04:02:32;;;;;;;6.55;5.03;;;;;;;;;;5054452;28;20274;-62
2023/06/22 04:05:00;;;;;;;5.70;5.20;;;;;;;;;;5058346;28;20212;-63
2023/06/22 04:07:27;;;;;;;5.32;4.53;;;;;;;;;;5068901;28;21066;-63
2023/06/22 04:09:54;;;;;;;5.68;5.15;;;;;;;;;;5061445;28;20272;-67
2023/06/22 04:12:21;;;;;;;5.47;5.05;;;;;;;;;;5069763;28;20265;-62
2023/06/22 04:14:48;;;;;;;4.95;4.53;;;;;;;;;;5050714;28;20227;-63
2023/06/22 04:17:17;;;;;;;5.50;4.70;;;;;;;;;;5061137;28;20231;-64
2023/06/22 04:19:44;;;;;;;5.47;5.00;;;;;;;;;;5055020;28;20537;-63
2023/06/22 04:22:13;;;;;;;5.57;5.07;;;;;;;;;;5058300;28;20215;-67
2023/06/22 04:24:40;;;;;;;5.80;5.07;;;;;;;;;;5055600;28;20204;-64
2023/06/22 04:27:07;;;;;;;4.72;4.43;;;;;;;;;;5060421;28;20226;-63
2023/06/22 04:29:34;;;;;;;5.60;4.85;;;;;;;;;;5051330;28;20364;-64
2023/06/22 04:32:02;;;;;;;5.30;4.90;;;;;;;;;;5069236;28;20264;-64
2023/06/22 04:34:30;;;;;;;5.38;4.88;;;;;;;;;;5059112;28;20227;-64
2023/06/22 04:36:57;;;;;;;8.35;5.45;;;;;;;;;;5052168;28;20673;-65
2023/06/22 04:39:26;;;;;;;6.50;5.07;;;;;;;;;;5051052;28;20204;-65
2023/06/22 04:41:54;;;;;;;7.60;4.65;;;;;;;;;;5063024;28;20218;-65
2023/06/22 04:44:24;;;;;;;5.18;4.78;;;;;;;;;;5068410;28;20199;-65
2023/06/22 04:46:53;;;;;;;6.18;5.60;;;;;;;;;;5050951;28;20303;-64
2023/06/22 04:49:21;;;;;;;5.97;5.43;;;;;;;;;;5051623;28;20215;-64
2023/06/22 04:51:51;;;;;;;5.53;5.13;;;;;;;;;;5061828;28;20273;-65
2023/06/22 04:54:18;;;;;;;5.35;4.85;;;;;;;;;;5051053;28;20851;-65
2023/06/22 04:56:48;;;;;;;5.70;5.10;;;;;;;;;;5066770;28;20219;-65
2023/06/22 04:59:15;;;;;;;5.47;4.97;;;;;;;;;;5064554;28;20641;-65
2023/06/22 05:01:42;;;;;;;6.38;5.03;;;;;;;;;;5056939;28;20207;-65
2023/06/22 05:04:09;;;;;;;5.78;5.25;;;;;;;;;;5050755;28;20246;-65
2023/06/22 05:06:36;;;;;;;5.68;5.18;;;;;;;;;;5055514;28;20204;-66
2023/06/22 05:09:07;;;;;;;5.95;5.35;;;;;;;;;;5066111;28;20249;-66
2023/06/22 05:11:34;;;;;;;5.57;5.03;;;;;;;;;;5054956;28;20220;-65
2023/06/22 05:14:02;;;;;;;6.32;5.25;;;;;;;;;;5047183;28;20203;-66
2023/06/22 05:16:29;;;;;;;5.55;4.97;;;;;;;;;;5063843;28;20256;-65
2023/06/22 05:18:56;;;;;;;6.47;5.30;;;;;;;;;;5063747;28;20203;-63
2023/06/22 05:21:24;;;;;;;7.75;5.32;;;;;;;;;;5062483;28;20286;-66
2023/06/22 05:23:51;;;;;;;6.90;5.45;;;;;;;;;;5047805;28;20215;-64
2023/06/22 05:26:18;;;;;;;6.05;5.45;;;;;;;;;;5049004;28;20212;-63
2023/06/22 05:28:46;;;;;;;9.07;5.50;;;;;;;;;;5055098;28;20298;-66
2023/06/22 05:31:15;;;;;;;7.13;5.63;;;;;;;;;;5064602;28;20212;-67
2023/06/22 05:33:42;;;;;;;6.10;5.60;;;;;;;;;;5063690;28;20218;-64
2023/06/22 05:36:09;;;;;;;6.65;5.97;;;;;;;;;;5059709;28;20239;-64
2023/06/22 05:38:36;;;;;;;6.05;5.47;;;;;;;;;;5057887;28;20249;-64
2023/06/22 05:41:04;;;;;;;5.53;5.07;;;;;;;;;;5069349;28;20229;-64
2023/06/22 05:43:31;;;;;;;7.63;5.22;;;;;;;;;;5067267;28;20257;-63
2023/06/22 05:45:58;;;;;;;7.10;5.07;;;;;;;;;;5057758;28;20204;-65
2023/06/22 05:48:26;;;;;;;5.85;5.30;;;;;;;;;;5061328;28;20592;-64
2023/06/22 05:50:53;;;;;;;6.15;4.85;;;;;;;;;;5066341;28;20219;-64
2023/06/22 05:53:21;;;;;;;5.25;4.85;;;;;;;;;;5062124;28;20211;-64
2023/06/22 05:55:48;;;;;;;5.35;4.85;;;;;;;;;;5060526;28;20226;-64
2023/06/22 05:58:15;;;;;;;5.55;4.95;;;;;;;;;;5048042;28;20253;-65
2023/06/22 06:00:43;;;;;;;5.15;4.65;;;;;;;;;;5049427;28;20298;-65
2023/06/22 06:03:10;;;;;;;5.03;4.50;;;;;;;;;;5055124;28;20242;-66
2023/06/22 06:05:39;;;;;;;5.70;5.15;;;;;;;;;;5069263;28;20556;-63
2023/06/22 06:08:07;;;;;;;4.78;4.47;;;;;;;;;;5069120;28;20199;-64
2023/06/22 06:10:34;;;;;;;11.38;4.50;;;;;;;;;;5069284;28;20297;-64
2023/06/22 06:13:04;;;;;;;4.45;4.20;;;;;;;;;;5068938;28;20214;-64
2023/06/22 06:15:31;;;;;;;5.22;4.05;;;;;;;;;;5068848;28;20230;-64
2023/06/22 06:17:58;;;;;;;5.30;4.35;;;;;;;;;;5068849;28;20310;-65
2023/06/22 06:20:27;;;;;;;5.20;4.57;;;;;;;;;;5068894;28;20221;-64
2023/06/22 06:22:56;;;;;;;4.72;3.97;;;;;;;;;;5068656;28;20248;-65
2023/06/22 06:25:23;;;;;;;4.93;4.50;;;;;;;;;;5068798;28;20315;-64
2023/06/22 06:27:51;;;;;;;5.18;4.45;;;;;;;;;;5068590;28;20960;-65
2023/06/22 06:30:19;;;;;;;4.80;4.40;;;;;;;;;;5052411;28;20199;-65
2023/06/22 06:32:46;;;;;;;4.32;3.92;;;;;;;;;;5068408;28;20252;-64
2023/06/22 06:35:14;;;;;;;5.00;4.60;;;;;;;;;;5058587;28;20904;-64
2023/06/22 06:37:42;;;;;;;4.57;4.30;;;;;;;;;;5067688;28;20736;-64
2023/06/22 06:40:11;;;;;;;4.97;4.47;;;;;;;;;;5068047;28;20585;-65
2023/06/22 06:42:41;;;;;;;4.57;4.18;;;;;;;;;;5067473;28;20207;-64
2023/06/22 06:45:09;;;;;;;4.88;4.32;;;;;;;;;;5067562;28;20265;-64
2023/06/22 06:47:36;;;;;;;4.28;3.97;;;;;;;;;;5066280;28;20260;-64
2023/06/22 06:50:03;;;;;;;4.68;4.28;;;;;;;;;;5066621;28;20556;-65
2023/06/22 06:52:30;;;;;;;4.40;4.10;;;;;;;;;;5067454;28;20233;-64
2023/06/22 06:54:57;;;;;;;4.45;4.15;;;;;;;;;;5067059;28;20340;-64
2023/06/22 06:57:28;;;;;;;5.85;5.22;;;;;;;;;;5048310;28;20273;-64
2023/06/22 06:59:56;;;;;;;5.07;4.57;;;;;;;;;;5047263;28;20235;-64
2023/06/22 07:02:23;;;;;;;4.32;4.05;;;;;;;;;;5047403;28;20350;-64
2023/06/22 07:04:50;;;;;;;5.30;4.90;;;;;;;;;;5048114;28;20203;-64
2023/06/22 07:07:18;;;;;;;5.13;4.32;;;;;;;;;;5048320;28;20644;-65
2023/06/22 07:09:45;;;;;;;5.60;5.03;;;;;;;;;;5055469;28;20215;-64
2023/06/22 07:12:12;;;;;;;4.95;4.53;;;;;;;;;;5062131;28;20207;-65
2023/06/22 07:14:40;;;;;;;4.93;4.53;;;;;;;;;;5067023;28;20214;-66
2023/06/22 07:17:07;;;;;;;5.28;4.85;;;;;;;;;;5049383;28;20690;-62
2023/06/22 07:19:34;;;;;;;4.82;4.43;;;;;;;;;;5047362;28;20216;-62
2023/06/22 07:22:01;;;;;;;4.93;4.53;;;;;;;;;;5047097;28;20725;-62
2023/06/22 07:24:28;;;;;;;5.35;4.88;;;;;;;;;;5055053;28;20653;-63
2023/06/22 07:26:57;;;;;;;5.00;4.60;;;;;;;;;;5064786;28;20204;-64
2023/06/22 07:29:24;;;;;;;5.63;5.13;;;;;;;;;;5067288;28;20207;-65
2023/06/22 07:31:52;;;;;;;5.38;4.78;;;;;;;;;;5066946;28;20218;-65
2023/06/22 07:34:20;;;;;;;4.85;4.45;;;;;;;;;;5067074;28;20226;-64
2023/06/22 07:36:47;;;;;;;6.80;4.57;;;;;;;;;;5067065;28;20234;-64
2023/06/22 07:39:14;;;;;;;5.32;4.82;;;;;;;;;;5066385;28;20215;-64
2023/06/22 07:41:41;;;;;;;6.03;4.82;;;;;;;;;;5062785;28;20229;-65
2023/06/22 07:44:08;;;;;;;6.53;4.63;;;;;;;;;;5066896;28;20420;-65
2023/06/22 07:46:35;;;;;;;5.20;4.70;;;;;;;;;;5059174;28;20219;-65
2023/06/22 07:49:04;;;;;;;4.80;4.50;;;;;;;;;;5046643;28;20277;-65
2023/06/22 07:51:31;;;;;;;5.40;4.90;;;;;;;;;;5050871;28;20204;-66
2023/06/22 07:53:58;;;;;;;5.03;4.63;;;;;;;;;;5046575;28;20211;-64
2023/06/22 07:56:25;;;;;;;4.82;4.25;;;;;;;;;;5051475;28;20231;-64
2023/06/22 07:58:53;;;;;;;5.80;5.32;;;;;;;;;;5050067;28;20219;-64
2023/06/22 08:01:20;;;;;;;5.38;4.88;;;;;;;;;;5060852;28;20222;-64
2023/06/22 08:03:48;;;;;;;5.38;4.88;;;;;;;;;;5066171;28;20266;-66
2023/06/22 08:06:16;;;;;;;5.35;4.85;;;;;;;;;;5066750;28;20238;-67
2023/06/22 08:08:43;;;;;;;5.47;5.07;;;;;;;;;;5066615;28;20211;-64
2023/06/22 08:11:10;;;;;;;5.97;5.47;;;;;;;;;;5049615;28;20231;-64
2023/06/22 08:13:37;;;;;;;5.30;4.85;;;;;;;;;;5049723;28;20216;-65
2023/06/22 08:16:04;;;;;;;5.40;4.90;;;;;;;;;;5068859;28;20245;-64
2023/06/22 08:18:31;;;;;;;4.70;4.40;;;;;;;;;;5061014;28;20212;-64
2023/06/22 08:20:58;;;;;;;5.25;4.85;;;;;;;;;;5049995;28;20238;-64
2023/06/22 08:23:27;;;;;;;5.20;4.80;;;;;;;;;;5069566;28;20750;-65
2023/06/22 08:25:54;;;;;;;5.88;5.32;;;;;;;;;;5053688;28;20199;-64
2023/06/22 08:28:21;;;;;;;5.70;5.30;;;;;;;;;;5049403;28;20211;-65
2023/06/22 08:30:48;;;;;;;5.47;5.07;;;;;;;;;;5049504;28;20208;-65
2023/06/22 08:33:15;;;;;;;5.50;5.10;;;;;;;;;;5057560;28;20585;-65
2023/06/22 08:35:42;;;;;;;6.28;5.53;;;;;;;;;;5049586;28;20223;-65
2023/06/22 08:38:09;;;;;;;5.35;4.85;;;;;;;;;;5050446;28;20265;-64
2023/06/22 08:40:37;;;;;;;6.30;5.75;;;;;;;;;;5066789;28;20203;-65
2023/06/22 08:43:05;;;;;;;6.38;5.75;;;;;;;;;;5069446;28;20215;-65
2023/06/22 08:45:32;;;;;;;5.68;5.18;;;;;;;;;;5068466;28;20210;-64
2023/06/22 08:47:59;;;;;;;5.53;5.07;;;;;;;;;;5068881;28;20214;-65
2023/06/22 08:50:26;;;;;;;5.75;5.07;;;;;;;;;;5068583;28;20207;-65
2023/06/22 08:52:53;;;;;;;5.90;5.43;;;;;;;;;;5068537;28;20549;-66
2023/06/22 08:55:20;;;;;;;6.28;4.95;;;;;;;;;;5069078;28;20238;-64
2023/06/22 08:57:48;;;;;;;6.22;5.45;;;;;;;;;;5067781;28;20218;-65
2023/06/22 09:00:17;;;;;;;5.50;5.00;;;;;;;;;;5062554;28;20642;-65
2023/06/22 09:02:44;;;;;;;5.97;5.40;;;;;;;;;;5065828;28;20988;-65
2023/06/22 09:05:11;;;;;;;5.40;4.97;;;;;;;;;;5067959;28;20660;-65
2023/06/22 09:07:38;;;;;;;5.32;4.82;;;;;;;;;;5051851;28;20212;-65
2023/06/22 09:10:06;;;;;;;5.93;4.38;;;;;;;;;;5048261;28;20218;-65
2023/06/22 09:12:33;;;;;;;5.30;4.80;;;;;;;;;;5049387;28;20436;-65
2023/06/22 09:15:04;;;;;;;5.15;4.75;;;;;;;;;;5046807;28;20397;-65
2023/06/22 09:17:31;;;;;;;5.53;5.03;;;;;;;;;;5046972;28;20588;-65
2023/06/22 09:19:58;;;;;;;5.20;4.70;;;;;;;;;;5058019;28;20216;-66
2023/06/22 09:22:28;;;;;;;4.88;4.50;;;;;;;;;;5069012;28;20231;-65
2023/06/22 09:24:55;;;;;;;5.25;4.78;;;;;;;;;;5068832;28;20269;-65
2023/06/22 09:27:23;;;;;;;5.97;4.90;;;;;;;;;;5066686;28;20221;-65
2023/06/22 09:29:50;;;;;;;4.38;4.07;;;;;;;;;;5068357;28;20290;-65
2023/06/22 09:32:18;;;;;;;5.25;4.85;;;;;;;;;;5064451;28;20268;-66
2023/06/22 09:34:45;;;;;;;4.35;4.15;;;;;;;;;;5066515;28;20723;-65
2023/06/22 09:37:12;;;;;;;5.07;4.68;;;;;;;;;;5050383;28;20224;-65
2023/06/22 09:39:39;;;;;;;4.93;4.53;;;;;;;;;;5061694;28;20729;-65
2023/06/22 09:42:07;;;;;;;5.00;4.50;;;;;;;;;;5067993;28;20219;-65
2023/06/22 09:44:34;;;;;;;4.32;4.13;;;;;;;;;;5067739;28;20665;-65
2023/06/22 09:47:01;;;;;;;3.92;3.72;;;;;;;;;;5060034;28;20272;-64
2023/06/22 09:49:29;;;;;;;4.60;4.30;;;;;;;;;;5063109;28;20253;-67
2023/06/22 09:51:56;;;;;;;5.00;4.60;;;;;;;;;;5066665;28;20229;-66
2023/06/22 09:54:24;;;;;;;7.47;5.00;;;;;;;;;;5058624;28;20297;-66
2023/06/22 09:56:51;;;;;;;4.18;3.97;;;;;;;;;;5065545;28;20257;-66
2023/06/22 09:59:18;;;;;;;4.57;4.07;;;;;;;;;;5055395;28;20207;-68
2023/06/22 10:01:45;;;;;;;4.05;3.75;;;;;;;;;;5067723;28;20264;-68
2023/06/22 10:04:12;;;;;;;4.68;4.40;;;;;;;;;;5067887;28;20243;-69
2023/06/22 10:06:41;;;;;;;4.35;3.95;;;;;;;;;;5060308;28;20215;-70
2023/06/22 10:09:08;;;;;;;4.07;3.88;;;;;;;;;;5058200;28;20245;-64
2023/06/22 10:11:36;;;;;;;4.88;4.57;;;;;;;;;;5047546;28;20218;-67
2023/06/22 10:14:04;;;;;;;4.40;4.10;;;;;;;;;;5047358;28;20215;-66
2023/06/22 10:16:35;;;;;;;4.32;3.92;;;;;;;;;;5067120;28;20295;-66
2023/06/22 10:19:02;;;;;;;4.45;4.15;;;;;;;;;;5065386;28;20218;-64
2023/06/22 10:21:29;;;;;;;4.18;3.85;;;;;;;;;;5067137;28;20316;-66
2023/06/22 10:23:59;;;;;;;3.95;3.75;;;;;;;;;;5067306;28;20214;-65
2023/06/22 10:26:28;;;;;;;6.10;4.32;;;;;;;;;;5066301;28;20593;-65
2023/06/22 10:28:55;;;;;;;4.15;3.95;;;;;;;;;;5065510;28;20665;-65
2023/06/22 10:31:22;;;;;;;4.60;4.22;;;;;;;;;;5061330;28;20676;-66
2023/06/22 10:33:50;;;;;;;4.80;4.40;;;;;;;;;;5067442;28;20305;-66
2023/06/22 10:36:17;;;;;;;4.32;4.07;;;;;;;;;;5067103;28;20318;-69
2023/06/22 10:38:45;;;;;;;4.45;4.15;;;;;;;;;;5061957;28;20203;-66
2023/06/22 10:41:13;;;;;;;6.43;4.30;;;;;;;;;;5063286;28;20270;-66
2023/06/22 10:43:40;;;;;;;4.18;3.97;;;;;;;;;;5048155;28;20219;-66
2023/06/22 10:46:07;;;;;;;5.13;4.10;;;;;;;;;;5050799;28;20210;-64
2023/06/22 10:48:35;;;;;;;4.45;4.13;;;;;;;;;;5065473;28;20206;-65
2023/06/22 10:51:02;;;;;;;4.55;4.18;;;;;;;;;;5066957;28;20210;-67
2023/06/22 10:53:29;;;;;;;4.30;3.90;;;;;;;;;;5066647;28;20210;-66
2023/06/22 10:55:56;;;;;;;5.20;4.20;;;;;;;;;;5064560;28;20755;-68
2023/06/22 10:58:25;;;;;;;4.07;3.70;;;;;;;;;;5047102;28;20265;-68
2023/06/22 11:00:52;;;;;;;4.57;4.22;;;;;;;;;;5061679;28;20246;-67
2023/06/22 11:03:19;;;;;;;5.45;3.80;;;;;;;;;;5056678;28;20250;-66
2023/06/22 11:05:47;;;;;;;5.88;3.90;;;;;;;;;;5066844;28;20210;-67
2023/06/22 11:08:15;;;;;;;4.65;4.25;;;;;;;;;;5066589;28;20210;-65
2023/06/22 11:10:42;;;;;;;4.07;3.70;;;;;;;;;;5046991;28;20351;-65
2023/06/22 11:13:09;;;;;;;5.22;4.18;;;;;;;;;;5065741;28;20241;-65
2023/06/22 11:15:38;;;;;;;4.82;4.20;;;;;;;;;;5053981;28;20211;-66
2023/06/22 11:18:06;;;;;;;5.32;3.80;;;;;;;;;;5057163;28;20490;-66
2023/06/22 11:20:38;;;;;;;5.68;4.60;;;;;;;;;;5051100;28;20214;-69
2023/06/22 11:23:05;;;;;;;5.57;4.15;;;;;;;;;;5048140;28;20276;-64
2023/06/22 11:25:34;;;;;;;4.72;4.30;;;;;;;;;;5056600;28;20302;-65
2023/06/22 11:28:01;;;;;;;4.32;4.00;;;;;;;;;;5051100;28;20215;-64
2023/06/22 11:30:28;;;;;;;5.32;4.82;;;;;;;;;;5058872;28;20829;-64
2023/06/22 11:32:58;;;;;;;4.50;4.20;;;;;;;;;;5047406;28;20222;-63
2023/06/22 11:35:25;;;;;;;4.22;3.92;;;;;;;;;;5046978;28;20237;-64
2023/06/22 11:37:52;;;;;;;4.25;3.95;;;;;;;;;;5050650;28;20700;-63
2023/06/22 11:40:20;;;;;;;7.20;4.80;;;;;;;;;;5064528;28;20352;-63
2023/06/22 11:42:47;;;;;;;4.43;4.00;;;;;;;;;;5047748;28;20221;-63
2023/06/22 11:45:14;;;;;;;4.20;3.95;;;;;;;;;;5060047;28;20206;-63
2023/06/22 11:47:41;;;;;;;4.35;4.07;;;;;;;;;;5070737;28;20293;-63
2023/06/22 11:50:10;;;;;;;5.03;4.50;;;;;;;;;;5070846;28;21003;-63
2023/06/22 11:52:37;;;;;;;5.05;4.72;;;;;;;;;;5057599;28;20221;-64
2023/06/22 11:55:05;;;;;;;6.72;5.45;;;;;;;;;;5065411;28;20215;-64
2023/06/22 11:57:34;;;;;;;5.60;4.90;;;;;;;;;;5050700;28;20226;-64
2023/06/22 12:00:01;;;;;;;5.10;4.25;;;;;;;;;;5050648;28;20206;-64
2023/06/22 12:02:28;;;;;;;5.10;4.57;;;;;;;;;;5051421;28;20237;-64
2023/06/22 12:04:56;;;;;;;4.90;4.50;;;;;;;;;;5051869;28;20211;-64
2023/06/22 12:10:28;;;;;;;7.28;4.80;;;;;;;;;;5051337;28;20201;-63
2023/06/22 12:12:57;;;;;;;4.85;4.55;;;;;;;;;;5058847;28;20322;-63
2023/06/22 12:15:24;;;;;;;4.47;4.18;;;;;;;;;;5056510;28;20207;-63
2023/06/22 12:17:51;;;;;;;4.68;4.38;;;;;;;;;;5049605;28;20771;-63
2023/06/22 12:23:22;;;;;;;5.10;4.65;;;;;;;;;;5050696;28;20189;-67
2023/06/22 12:25:50;;;;;;;4.78;4.40;;;;;;;;;;5047598;28;20210;-65
2023/06/22 12:31:21;;;;;;;4.53;4.25;;;;;;;;;;5051939;28;20294;-71
2023/06/22 12:33:48;;;;;;;4.57;4.18;;;;;;;;;;5048160;28;20203;-64
2023/06/22 12:36:16;;;;;;;5.45;4.97;;;;;;;;;;5057363;28;20195;-63
2023/06/22 12:38:43;;;;;;;6.18;5.60;;;;;;;;;;5058467;28;20206;-66
2023/06/22 12:41:11;;;;;;;5.95;5.38;;;;;;;;;;5059088;28;20207;-64
2023/06/22 12:43:38;;;;;;;12.43;7.38;;;;;;;;;;5052341;28;20211;-64
2023/06/22 12:46:05;;;;;;;7.55;5.03;;;;;;;;;;5061580;28;20214;-63
2023/06/22 12:48:32;;;;;;;6.95;5.10;;;;;;;;;;5058849;28;20657;-66
2023/06/22 12:50:59;;;;;;;5.40;4.85;;;;;;;;;;5065098;28;20264;-64
2023/06/22 12:53:27;;;;;;;5.32;4.82;;;;;;;;;;5054634;28;20203;-65
2023/06/22 12:55:54;;;;;;;5.20;4.80;;;;;;;;;;5067667;28;20221;-64
2023/06/22 12:58:22;;;;;;;4.78;4.47;;;;;;;;;;5054078;28;20684;-65
2023/06/22 13:00:50;;;;;;;7.60;4.60;;;;;;;;;;5048965;28;20203;-65
2023/06/22 13:03:17;;;;;;;5.03;4.63;;;;;;;;;;5064123;28;20242;-66
2023/06/22 13:05:44;;;;;;;5.28;4.03;;;;;;;;;;5067187;28;20304;-65
2023/06/22 13:08:11;;;;;;;6.25;5.28;;;;;;;;;;5053946;28;20199;-67
2023/06/22 13:10:38;;;;;;;5.75;5.18;;;;;;;;;;5065114;28;20623;-66
2023/06/22 13:13:05;;;;;;;6.07;4.35;;;;;;;;;;5056138;28;20206;-66
2023/06/22 13:15:34;;;;;;;4.68;4.35;;;;;;;;;;5055456;28;20272;-67
2023/06/22 13:18:01;;;;;;;5.15;4.68;;;;;;;;;;5068568;28;20237;-66
2023/06/22 13:20:28;;;;;;;4.50;4.03;;;;;;;;;;5055394;28;20312;-66
2023/06/22 13:22:56;;;;;;;5.07;4.68;;;;;;;;;;5058700;28;20750;-66
2023/06/22 13:25:26;;;;;;;5.38;4.88;;;;;;;;;;5056643;28;20207;-65
2023/06/22 13:27:53;;;;;;;4.88;4.47;;;;;;;;;;5053398;28;20202;-65
2023/06/22 13:30:20;;;;;;;4.13;3.80;;;;;;;;;;5058688;28;20631;-65
2023/06/22 13:32:48;;;;;;;6.20;4.05;;;;;;;;;;5055333;28;20214;-65
2023/06/22 13:35:15;;;;;;;4.60;4.00;;;;;;;;;;5054124;28;20219;-66
2023/06/22 13:37:43;;;;;;;7.47;3.90;;;;;;;;;;5068731;28;20233;-65
2023/06/22 13:40:10;;;;;;;4.10;3.63;;;;;;;;;;5068197;28;20299;-66
2023/06/22 13:42:37;;;;;;;3.63;2.83;;;;;;;;;;5068656;28;20221;-66
2023/06/22 13:48:09;;;;;;;3.85;3.35;;;;;;;;;;5035462;28;20256;-65
2023/06/22 13:50:36;;;;;;;4.45;3.80;;;;;;;;;;5059351;28;20211;-65
2023/06/22 13:53:04;;;;;;;3.17;2.97;;;;;;;;;;5050126;28;20215;-65
2023/06/22 13:55:31;;;;;;;4.57;2.75;;;;;;;;;;5047969;28;20207;-66
2023/06/22 13:57:58;;;;;;;2.75;2.55;;;;;;;;;;5056102;28;20255;-65
2023/06/22 14:00:25;;;;;;;3.53;3.20;;;;;;;;;;5061796;28;20194;-64
2023/06/22 14:02:52;;;;;;;2.85;2.65;;;;;;;;;;5053188;28;20257;-66
2023/06/22 14:05:20;;;;;;;10.30;3.13;;;;;;;;;;5059822;28;20579;-66
2023/06/22 14:07:47;;;;;;;3.55;2.88;;;;;;;;;;5047323;28;20211;-64
2023/06/22 14:10:14;;;;;;;3.13;2.90;;;;;;;;;;5050104;28;20203;-65
2023/06/22 14:12:41;;;;;;;8.15;3.30;;;;;;;;;;5062889;28;20229;-64
2023/06/22 14:15:09;;;;;;;2.92;2.67;;;;;;;;;;5047710;28;20206;-65
2023/06/22 14:17:36;;;;;;;2.90;2.70;;;;;;;;;;5054411;28;20320;-64
2023/06/22 14:20:03;;;;;;;7.25;3.03;;;;;;;;;;5062924;28;20206;-68
2023/06/22 14:22:31;;;;;;;2.38;2.28;;;;;;;;;;5050327;28;20222;-63
2023/06/22 14:24:58;;;;;;;2.97;2.63;;;;;;;;;;5051017;28;20207;-64
2023/06/22 14:30:29;;;;;;;6.55;3.22;;;;;;;;;;5049376;28;20198;-64
2023/06/22 14:32:56;;;;;;;3.03;2.83;;;;;;;;;;5064860;28;20206;-66
2023/06/22 14:35:24;;;;;;;3.55;2.92;;;;;;;;;;5058751;28;20207;-66
2023/06/22 14:37:52;;;;;;;3.85;2.75;;;;;;;;;;5047660;28;20258;-67
2023/06/22 14:40:19;;;;;;;3.88;2.72;;;;;;;;;;5060531;28;20202;-64
2023/06/22 14:42:46;;;;;;;3.15;2.72;;;;;;;;;;5060779;28;20548;-64
2023/06/22 14:45:14;;;;;;;4.32;3.70;;;;;;;;;;5053065;28;20269;-65
2023/06/22 14:47:41;;;;;;;3.55;3.28;;;;;;;;;;5052533;28;20280;-65
2023/06/22 14:50:09;;;;;;;5.38;3.03;;;;;;;;;;5062494;28;20929;-65
2023/06/22 14:52:36;;;;;;;4.25;3.10;;;;;;;;;;5049287;28;20211;-65
2023/06/22 14:55:04;;;;;;;5.60;3.03;;;;;;;;;;5058128;28;20754;-65
2023/06/22 14:57:31;;;;;;;6.57;2.95;;;;;;;;;;5063310;28;20230;-66
2023/06/22 14:59:58;;;;;;;3.80;3.08;;;;;;;;;;5049414;28;20219;-67